createdAt,value
2018-08-07T00:01:19.188Z,100562.34
2018-08-07T00:03:45.211Z,100563.67
2018-08-07T00:06:11.252Z,100565.80
2018-08-07T00:08:37.292Z,100566.02
2018-08-07T00:11:05.343Z,100565.86
2018-08-07T00:13:31.344Z,100561.22
2018-08-07T00:15:57.321Z,100554.56
2018-08-07T00:18:23.337Z,100549.41
2018-08-07T00:20:49.381Z,100550.05
2018-08-07T00:23:15.367Z,100546.88
2018-08-07T00:25:41.376Z,100554.05
2018-08-07T00:28:07.443Z,100550.05
2018-08-07T00:30:33.433Z,100549.02
2018-08-07T00:32:59.417Z,100545.75
2018-08-07T00:35:25.420Z,100546.75
2018-08-07T00:37:51.941Z,100542.81
2018-08-07T00:40:18.322Z,100540.92
2018-08-07T00:42:44.295Z,100539.03
2018-08-07T00:45:10.303Z,100534.94
2018-08-07T00:47:36.286Z,100541.23
2018-08-07T00:50:02.314Z,100536.78
2018-08-07T00:52:28.275Z,100543.09
2018-08-07T00:54:54.302Z,100538.81
2018-08-07T00:57:20.304Z,100538.45
2018-08-07T00:59:46.308Z,100539.20
2018-08-07T01:02:12.318Z,100535.78
2018-08-07T01:04:38.323Z,100536.88
2018-08-07T01:07:04.328Z,100531.84
2018-08-07T01:09:30.292Z,100525.48
2018-08-07T01:11:56.279Z,100528.48
2018-08-07T01:14:22.281Z,100521.06
2018-08-07T01:16:48.307Z,100526.94
2018-08-07T01:19:14.342Z,100526.46
2018-08-07T01:21:40.413Z,100521.48
2018-08-07T01:24:06.423Z,100523.67
2018-08-07T01:26:32.392Z,100522.78
2018-08-07T01:28:58.402Z,100523.03
2018-08-07T01:31:24.372Z,100526.27
2018-08-07T01:33:50.353Z,100520.25
2018-08-07T01:36:16.333Z,100517.64
2018-08-07T01:38:42.320Z,100517.38
2018-08-07T01:41:08.290Z,100515.31
2018-08-07T01:43:34.278Z,100516.64
2018-08-07T01:46:00.345Z,100517.58
2018-08-07T01:48:26.299Z,100520.94
2018-08-07T01:50:52.269Z,100522.83
2018-08-07T01:53:18.283Z,100515.92
2018-08-07T01:55:44.305Z,100513.83
2018-08-07T01:58:10.291Z,100515.86
2018-08-07T02:00:36.266Z,100523.09
2018-08-07T02:03:02.242Z,100521.24
2018-08-07T02:05:28.233Z,100514.53
2018-08-07T02:07:54.209Z,100510.59
2018-08-07T02:10:20.188Z,100511.31
2018-08-07T02:12:46.177Z,100518.16
2018-08-07T02:15:12.143Z,100517.46
2018-08-07T02:17:38.200Z,100520.94
2018-08-07T02:20:04.165Z,100520.70
2018-08-07T02:22:30.157Z,100517.97
2018-08-07T02:24:56.265Z,100516.58
2018-08-07T02:27:22.235Z,100509.58
2018-08-07T02:29:48.193Z,100514.16
2018-08-07T02:32:14.203Z,100506.16
2018-08-07T02:34:40.169Z,100504.14
2018-08-07T02:37:06.141Z,100506.28
2018-08-07T02:39:32.126Z,100503.11
2018-08-07T02:47:01.670Z,100502.86
2018-08-07T02:49:27.668Z,100504.32
2018-08-07T02:51:53.629Z,100501.35
2018-08-07T02:54:19.601Z,100504.25
2018-08-07T02:56:45.569Z,100502.74
2018-08-07T02:59:11.567Z,100500.02
2018-08-07T03:01:37.547Z,100496.50
2018-08-07T03:04:03.544Z,100503.38
2018-08-07T03:06:29.533Z,100508.19
2018-08-07T03:08:55.473Z,100505.23
2018-08-07T03:11:21.452Z,100510.34
2018-08-07T03:13:47.425Z,100512.38
2018-08-07T03:16:13.391Z,100510.55
2018-08-07T03:18:39.371Z,100512.01
2018-08-07T03:21:05.332Z,100507.50
2018-08-07T03:23:31.289Z,100518.09
2018-08-07T03:38:35.112Z,100513.70
2018-08-07T03:41:01.085Z,100513.09
2018-08-07T03:43:27.048Z,100511.81
2018-08-07T03:45:53.030Z,100514.18
2018-08-07T03:48:18.988Z,100514.42
2018-08-07T03:50:44.959Z,100516.50
2018-08-07T03:53:10.981Z,100511.77
2018-08-07T03:55:36.954Z,100512.13
2018-08-07T03:58:02.960Z,100510.03
2018-08-07T04:00:28.967Z,100512.52
2018-08-07T04:05:30.233Z,100517.91
2018-08-07T04:07:56.169Z,100514.91
2018-08-07T04:10:22.186Z,100520.33
2018-08-07T04:12:48.152Z,100525.77
2018-08-07T04:15:14.115Z,100525.77
2018-08-07T04:17:40.116Z,100526.59
2018-08-07T04:20:06.123Z,100528.95
2018-08-07T04:22:32.141Z,100527.80
2018-08-07T04:24:58.143Z,100522.17
2018-08-07T04:27:24.303Z,100518.91
2018-08-07T04:29:50.268Z,100521.02
2018-08-07T04:32:20.679Z,100527.41
2018-08-07T04:34:46.683Z,100521.32
2018-08-07T04:37:12.674Z,100522.53
2018-08-07T04:39:38.662Z,100524.45
2018-08-07T04:42:04.681Z,100520.88
2018-08-07T04:44:30.716Z,100527.88
2018-08-07T04:46:56.725Z,100524.69
2018-08-07T04:49:22.838Z,100529.77
2018-08-07T04:51:48.884Z,100525.51
2018-08-07T04:54:14.840Z,100523.29
2018-08-07T04:56:40.840Z,100525.77
2018-08-07T04:59:06.832Z,100521.57
2018-08-07T05:01:32.805Z,100524.57
2018-08-07T05:03:58.831Z,100523.16
2018-08-07T05:06:24.909Z,100527.16
2018-08-07T05:08:50.872Z,100525.02
2018-08-07T05:11:16.856Z,100525.95
2018-08-07T05:13:42.815Z,100526.72
2018-08-07T05:16:08.799Z,100527.41
2018-08-07T05:18:35.812Z,100525.02
2018-08-07T05:21:01.808Z,100526.29
2018-08-07T05:23:27.804Z,100528.50
2018-08-07T05:25:53.777Z,100529.56
2018-08-07T05:28:19.765Z,100529.70
2018-08-07T05:30:45.770Z,100530.34
2018-08-07T05:33:11.723Z,100527.98
2018-08-07T05:35:37.698Z,100534.16
2018-08-07T05:38:03.699Z,100534.20
2018-08-07T05:40:29.688Z,100532.55
2018-08-07T05:42:55.664Z,100533.19
2018-08-07T05:45:21.642Z,100529.58
2018-08-07T05:47:47.636Z,100536.66
2018-08-07T05:50:13.620Z,100532.63
2018-08-07T05:52:39.595Z,100530.32
2018-08-07T05:55:05.585Z,100529.58
2018-08-07T05:57:31.534Z,100530.95
2018-08-07T05:59:57.517Z,100529.58
2018-08-07T06:02:23.505Z,100526.65
2018-08-07T06:04:49.501Z,100529.52
2018-08-07T06:07:15.472Z,100525.19
2018-08-07T06:09:41.448Z,100528.31
2018-08-07T06:12:07.406Z,100527.09
2018-08-07T06:14:33.412Z,100530.89
2018-08-07T06:16:59.408Z,100532.44
2018-08-07T06:19:25.461Z,100531.16
2018-08-07T06:21:51.441Z,100526.47
2018-08-07T06:24:18.463Z,100525.02
2018-08-07T06:29:18.230Z,100529.70
2018-08-07T06:31:44.360Z,100524.11
2018-08-07T06:34:10.326Z,100522.30
2018-08-07T06:39:09.233Z,100524.84
2018-08-07T06:41:35.219Z,100524.20
2018-08-07T06:44:01.200Z,100526.34
2018-08-07T06:46:27.278Z,100522.77
2018-08-07T06:48:53.251Z,100518.42
2018-08-07T06:51:19.226Z,100518.34
2018-08-07T06:53:45.200Z,100518.48
2018-08-07T06:56:11.159Z,100516.75
2018-08-07T06:58:37.129Z,100516.50
2018-08-07T07:01:03.103Z,100510.22
2018-08-07T07:03:29.071Z,100518.55
2018-08-07T07:05:55.043Z,100513.09
2018-08-07T07:08:21.010Z,100510.80
2018-08-07T07:10:46.979Z,100511.92
2018-08-07T07:13:12.948Z,100505.14
2018-08-07T07:15:38.944Z,100511.82
2018-08-07T07:18:04.932Z,100504.14
2018-08-07T07:20:30.920Z,100502.05
2018-08-07T07:22:57.971Z,100502.20
2018-08-07T07:25:23.954Z,100502.08
2018-08-07T07:27:49.940Z,100499.81
2018-08-07T07:30:15.911Z,100501.33
2018-08-07T07:32:41.910Z,100500.17
2018-08-07T07:35:07.878Z,100500.30
2018-08-07T07:37:33.859Z,100488.24
2018-08-07T07:39:59.827Z,100494.48
2018-08-07T07:42:25.815Z,100491.18
2018-08-07T07:44:51.934Z,100491.30
2018-08-07T07:47:17.934Z,100487.72
2018-08-07T07:49:43.903Z,100488.52
2018-08-07T07:52:09.905Z,100491.30
2018-08-07T07:54:35.887Z,100481.67
2018-08-07T07:57:01.864Z,100484.75
2018-08-07T07:59:31.174Z,100485.91
2018-08-07T08:01:57.162Z,100481.27
2018-08-07T08:04:23.145Z,100482.82
2018-08-07T08:06:49.129Z,100477.67
2018-08-07T08:09:15.137Z,100479.52
2018-08-07T08:11:41.097Z,100487.63
2018-08-07T08:14:08.070Z,100483.94
2018-08-07T08:16:34.074Z,100485.91
2018-08-07T08:19:00.047Z,100488.33
2018-08-07T08:21:25.989Z,100482.30
2018-08-07T08:23:51.991Z,100484.64
2018-08-07T08:26:17.964Z,100485.34
2018-08-07T08:28:43.930Z,100486.72
2018-08-07T08:31:09.930Z,100487.18
2018-08-07T08:33:35.912Z,100481.96
2018-08-07T08:36:01.888Z,100480.75
2018-08-07T08:38:27.875Z,100477.05
2018-08-07T08:40:53.860Z,100475.78
2018-08-07T08:53:29.055Z,100463.48
2018-08-07T08:55:55.042Z,100455.61
2018-08-07T08:58:21.021Z,100458.72
2018-08-07T09:00:46.977Z,100452.07
2018-08-07T09:03:12.955Z,100448.77
2018-08-07T09:05:38.934Z,100446.51
2018-08-07T09:08:04.888Z,100444.29
2018-08-07T09:10:30.990Z,100444.41
2018-08-07T09:12:56.889Z,100437.61
2018-08-07T09:15:22.872Z,100437.16
2018-08-07T09:17:48.941Z,100433.75
2018-08-07T09:20:14.930Z,100427.71
2018-08-07T09:22:40.872Z,100426.86
2018-08-07T09:25:07.891Z,100423.49
2018-08-07T09:27:33.882Z,100420.48
2018-08-07T09:29:59.861Z,100416.67
2018-08-07T09:32:25.834Z,100411.94
2018-08-07T09:34:51.809Z,100409.05
2018-08-07T09:37:21.394Z,100404.13
2018-08-07T09:39:47.361Z,100405.86
2018-08-07T09:52:20.568Z,100401.75
2018-08-07T09:54:46.665Z,100397.27
2018-08-07T09:57:12.635Z,100400.31
2018-08-07T09:59:38.605Z,100394.56
2018-08-07T10:02:04.588Z,100392.76
2018-08-07T10:04:30.544Z,100383.72
2018-08-07T10:06:56.551Z,100384.83
2018-08-07T10:09:22.544Z,100384.12
2018-08-07T10:11:48.485Z,100377.88
2018-08-07T10:14:14.448Z,100378.09
2018-08-07T10:16:40.445Z,100377.58
2018-08-07T10:19:09.782Z,100371.53
2018-08-07T10:21:35.744Z,100363.09
2018-08-07T10:24:01.730Z,100359.31
2018-08-07T10:29:04.560Z,100352.28
2018-08-07T10:31:30.533Z,100355.20
2018-08-07T10:33:56.490Z,100347.73
2018-08-07T10:36:22.452Z,100351.10
2018-08-07T10:38:48.434Z,100348.43
2018-08-07T10:41:14.526Z,100342.61
2018-08-07T10:43:40.483Z,100331.10
2018-08-07T10:46:06.382Z,100333.77
2018-08-07T10:48:32.334Z,100331.32
2018-08-07T10:50:58.314Z,100326.61
2018-08-07T10:53:24.303Z,100334.83
2018-08-07T10:55:55.036Z,100322.94
2018-08-07T10:58:21.114Z,100318.02
2018-08-07T11:00:47.093Z,100321.50
2018-08-07T11:03:13.061Z,100319.55
2018-08-07T11:05:39.097Z,100310.42
2018-08-07T11:08:05.034Z,100307.95
2018-08-07T11:10:31.014Z,100306.73
2018-08-07T11:12:57.031Z,100302.62
2018-08-07T11:15:22.988Z,100301.72
2018-08-07T11:17:48.943Z,100295.34
2018-08-07T11:20:14.959Z,100296.49
2018-08-07T11:22:45.850Z,100291.45
2018-08-07T11:25:11.845Z,100288.27
2018-08-07T11:27:37.849Z,100286.34
2018-08-07T11:30:03.861Z,100289.39
2018-08-07T11:32:29.812Z,100288.16
2018-08-07T11:34:55.739Z,100284.59
2018-08-07T11:37:21.697Z,100285.72
2018-08-07T11:39:47.689Z,100270.53
2018-08-07T11:42:13.651Z,100283.67
2018-08-07T11:44:39.600Z,100278.75
2018-08-07T11:47:05.561Z,100282.56
2018-08-07T11:49:31.535Z,100277.83
2018-08-07T11:51:57.507Z,100266.02
2018-08-07T11:54:23.506Z,100273.50
2018-08-07T11:56:49.470Z,100280.08
2018-08-07T11:59:15.457Z,100274.53
2018-08-07T12:01:41.431Z,100269.20
2018-08-07T12:04:07.409Z,100277.21
2018-08-07T12:06:33.470Z,100275.67
2018-08-07T12:08:59.442Z,100278.56
2018-08-07T12:11:25.414Z,100268.49
2018-08-07T12:13:51.403Z,100272.89
2018-08-07T12:16:17.430Z,100267.89
2018-08-07T12:18:43.358Z,100268.70
2018-08-07T12:21:09.327Z,100261.63
2018-08-07T12:23:35.306Z,100260.20
2018-08-07T12:26:01.289Z,100263.69
2018-08-07T12:28:27.279Z,100261.00
2018-08-07T12:30:53.241Z,100253.84
2018-08-07T12:33:19.219Z,100250.13
2018-08-07T12:35:45.196Z,100252.79
2018-08-07T12:38:11.305Z,100239.66
2018-08-07T12:48:11.885Z,100242.64
2018-08-07T12:50:37.860Z,100238.74
2018-08-07T13:00:44.026Z,100231.98
2018-08-07T13:03:09.991Z,100232.08
2018-08-07T13:08:12.541Z,100227.67
2018-08-07T13:10:38.536Z,100223.36
2018-08-07T13:13:04.566Z,100222.53
2018-08-07T13:15:30.649Z,100222.86
2018-08-07T13:17:56.671Z,100214.96
2018-08-07T13:20:22.634Z,100210.47
2018-08-07T13:22:48.618Z,100208.38
2018-08-07T13:25:14.597Z,100206.53
2018-08-07T13:27:40.620Z,100213.52
2018-08-07T13:30:06.580Z,100210.53
2018-08-07T13:35:04.740Z,100201.62
2018-08-07T13:37:30.736Z,100196.48
2018-08-07T13:39:56.871Z,100202.05
2018-08-07T13:42:22.885Z,100201.20
2018-08-07T13:44:48.856Z,100192.13
2018-08-07T13:47:14.862Z,100193.63
2018-08-07T13:49:40.849Z,100186.27
2018-08-07T13:52:06.814Z,100189.63
2018-08-07T13:54:32.785Z,100185.56
2018-08-07T13:56:58.749Z,100189.19
2018-08-07T13:59:24.721Z,100187.66
2018-08-07T14:01:50.700Z,100184.89
2018-08-07T14:06:48.128Z,100178.79
2018-08-07T14:09:14.217Z,100175.66
2018-08-07T14:11:40.184Z,100175.56
2018-08-07T14:14:06.145Z,100176.37
2018-08-07T14:16:32.119Z,100173.95
2018-08-07T14:18:58.077Z,100174.98
2018-08-07T14:26:32.186Z,100176.61
2018-08-07T14:28:58.154Z,100169.23
2018-08-07T14:31:24.134Z,100170.86
2018-08-07T14:33:50.109Z,100166.47
2018-08-07T14:36:16.071Z,100176.30
2018-08-07T14:38:42.048Z,100176.20
2018-08-07T14:41:07.998Z,100168.72
2018-08-07T14:43:34.004Z,100166.66
2018-08-07T14:46:00.001Z,100163.38
2018-08-07T14:48:25.990Z,100165.23
2018-08-07T14:50:51.982Z,100163.38
2018-08-07T14:53:18.001Z,100167.95
2018-08-07T14:55:43.986Z,100170.14
2018-08-07T14:58:09.968Z,100163.58
2018-08-07T15:00:35.963Z,100170.66
2018-08-07T15:03:01.935Z,100162.56
2018-08-07T15:05:27.931Z,100166.56
2018-08-07T15:07:53.918Z,100165.03
2018-08-07T15:10:19.877Z,100161.95
2018-08-07T15:12:45.833Z,100156.91
2018-08-07T15:15:11.944Z,100157.03
2018-08-07T15:17:41.795Z,100153.03
2018-08-07T15:20:07.755Z,100154.23
2018-08-07T15:22:33.741Z,100149.52
2018-08-07T15:25:03.440Z,100157.95
2018-08-07T15:27:29.406Z,100150.14
2018-08-07T15:29:55.397Z,100153.33
2018-08-07T15:32:21.386Z,100142.23
2018-08-07T15:34:47.356Z,100143.98
2018-08-07T15:39:45.055Z,100147.95
2018-08-07T15:42:11.044Z,100140.47
2018-08-07T15:44:37.014Z,100148.90
2018-08-07T15:47:02.996Z,100139.79
2018-08-07T15:49:29.018Z,100138.55
2018-08-07T15:51:54.994Z,100140.80
2018-08-07T15:54:20.956Z,100132.98
2018-08-07T15:56:46.984Z,100136.59
2018-08-07T15:59:12.919Z,100129.93
2018-08-07T16:01:38.890Z,100137.41
2018-08-07T16:04:04.901Z,100134.65
2018-08-07T16:06:30.865Z,100145.03
2018-08-07T16:08:56.843Z,100141.22
2018-08-07T16:11:22.812Z,100139.89
2018-08-07T16:13:48.808Z,100140.90
2018-08-07T16:16:14.791Z,100138.75
2018-08-07T16:18:40.768Z,100137.03
2018-08-07T16:21:06.733Z,100131.98
2018-08-07T16:23:32.722Z,100128.70
2018-08-07T16:25:58.808Z,100130.84
2018-08-07T16:28:24.879Z,100127.88
2018-08-07T16:30:50.869Z,100133.64
2018-08-07T16:33:20.979Z,100130.12
2018-08-07T16:35:47.012Z,100129.64
2018-08-07T16:38:13.003Z,100129.84
2018-08-07T16:40:38.966Z,100129.22
2018-08-07T16:43:04.931Z,100124.70
2018-08-07T16:45:30.920Z,100131.17
2018-08-07T16:47:56.979Z,100130.45
2018-08-07T16:50:22.944Z,100131.69
2018-08-07T16:52:48.948Z,100129.52
2018-08-07T16:55:14.914Z,100121.31
2018-08-07T16:57:44.133Z,100127.78
2018-08-07T17:00:10.165Z,100122.84
2018-08-07T17:02:39.296Z,100128.30
2018-08-07T17:05:05.261Z,100123.07
2018-08-07T17:07:31.238Z,100124.70
2018-08-07T17:09:57.220Z,100131.78
2018-08-07T17:12:23.248Z,100134.94
2018-08-07T17:14:49.213Z,100130.62
2018-08-07T17:17:15.193Z,100133.73
2018-08-07T17:19:41.197Z,100138.94
2018-08-07T17:22:10.825Z,100134.55
2018-08-07T17:24:36.775Z,100140.08
2018-08-07T17:27:07.228Z,100137.94
2018-08-07T17:29:33.275Z,100140.21
2018-08-07T17:31:59.318Z,100142.03
2018-08-07T17:34:25.314Z,100147.27
2018-08-07T17:36:51.256Z,100143.08
2018-08-07T17:39:17.224Z,100148.22
2018-08-07T17:41:43.213Z,100149.61
2018-08-07T17:44:09.212Z,100154.27
2018-08-07T17:46:35.185Z,100154.27
2018-08-07T17:49:01.167Z,100148.60
2018-08-07T17:51:27.146Z,100156.18
2018-08-07T17:53:53.123Z,100159.95
2018-08-07T17:56:19.102Z,100162.95
2018-08-07T17:58:45.075Z,100166.14
2018-08-07T18:06:14.657Z,100162.27
2018-08-07T18:08:40.586Z,100166.37
2018-08-07T18:11:06.568Z,100169.66
2018-08-07T18:13:32.535Z,100166.78
2018-08-07T18:15:58.549Z,100164.19
2018-08-07T18:18:24.542Z,100170.57
2018-08-07T18:20:50.527Z,100171.16
2018-08-07T18:23:16.522Z,100179.16
2018-08-07T18:25:42.511Z,100184.72
2018-08-07T18:28:08.454Z,100184.11
2018-08-07T18:30:34.779Z,100187.20
2018-08-07T18:33:00.779Z,100188.72
2018-08-07T18:35:26.755Z,100190.88
2018-08-07T18:37:52.716Z,100189.86
2018-08-07T18:40:18.716Z,100198.05
2018-08-07T18:42:44.719Z,100189.86
2018-08-07T18:45:10.791Z,100199.91
2018-08-07T18:47:36.766Z,100196.81
2018-08-07T18:50:02.762Z,100189.04
2018-08-07T18:52:28.949Z,100192.52
2018-08-07T18:54:55.148Z,100198.16
2018-08-07T18:57:21.432Z,100184.00
2018-08-07T18:59:47.370Z,100189.66
2018-08-07T19:02:17.596Z,100189.86
2018-08-07T19:04:43.791Z,100200.72
2018-08-07T19:07:09.789Z,100201.13
2018-08-07T19:09:35.953Z,100199.30
2018-08-07T19:12:01.968Z,100200.13
2018-08-07T19:14:27.932Z,100199.16
2018-08-07T19:16:54.034Z,100196.81
2018-08-07T19:19:20.002Z,100195.67
2018-08-07T19:21:46.049Z,100189.52
2018-08-07T19:24:12.041Z,100188.19
2018-08-07T19:26:38.059Z,100183.76
2018-08-07T19:29:04.056Z,100187.17
2018-08-07T19:31:30.058Z,100187.47
2018-08-07T19:33:56.083Z,100196.59
2018-08-07T19:36:25.945Z,100204.27
2018-08-07T19:38:51.877Z,100212.16
2018-08-07T19:41:17.850Z,100213.50
2018-08-07T19:43:43.838Z,100221.72
2018-08-07T19:46:09.825Z,100223.87
2018-08-07T19:48:35.806Z,100222.64
2018-08-07T19:51:01.822Z,100230.74
2018-08-07T19:53:27.825Z,100235.95
2018-08-07T19:55:53.913Z,100227.55
2018-08-07T19:58:19.850Z,100227.03
2018-08-07T20:00:45.822Z,100222.73
2018-08-07T20:03:11.809Z,100222.43
2018-08-07T20:05:37.788Z,100228.28
2018-08-07T20:08:03.739Z,100230.55
2018-08-07T20:10:29.737Z,100232.80
2018-08-07T20:12:55.706Z,100235.28
2018-08-07T20:15:21.661Z,100241.22
2018-08-07T20:17:48.434Z,100242.53
2018-08-07T20:20:14.451Z,100236.70
2018-08-07T20:22:40.410Z,100231.98
2018-08-07T20:25:06.407Z,100233.02
2018-08-07T20:27:32.408Z,100231.88
2018-08-07T20:30:01.590Z,100231.88
2018-08-07T20:32:27.536Z,100229.52
2018-08-07T20:34:53.504Z,100230.45
2018-08-07T20:37:19.488Z,100230.64
2018-08-07T20:39:46.515Z,100219.95
2018-08-07T20:42:12.514Z,100223.66
2018-08-07T20:44:38.463Z,100226.42
2018-08-07T20:47:04.440Z,100212.16
2018-08-07T20:49:30.433Z,100217.91
2018-08-07T20:51:56.578Z,100218.72
2018-08-07T20:54:22.575Z,100221.70
2018-08-07T20:56:48.546Z,100221.72
2018-08-07T20:59:14.531Z,100218.73
2018-08-07T21:01:45.044Z,100215.45
2018-08-07T21:06:42.207Z,100215.75
2018-08-07T21:09:08.174Z,100223.34
2018-08-07T21:11:38.972Z,100220.45
2018-08-07T21:14:04.921Z,100213.20
2018-08-07T21:24:04.789Z,100177.20
2018-08-07T21:26:30.774Z,100168.69
2018-08-07T21:28:56.751Z,100172.36
2018-08-07T21:31:22.712Z,100170.21
2018-08-07T21:33:48.701Z,100172.56
2018-08-07T21:36:14.677Z,100176.89
2018-08-07T21:38:40.631Z,100173.29
2018-08-07T21:41:06.584Z,100175.05
2018-08-07T21:43:32.572Z,100171.47
2018-08-07T21:45:58.560Z,100171.25
2018-08-07T21:48:24.519Z,100176.39
2018-08-07T21:50:50.484Z,100178.64
2018-08-07T21:53:16.445Z,100173.29
2018-08-07T21:55:42.451Z,100175.78
2018-08-07T21:58:08.455Z,100181.01
2018-08-07T22:00:34.477Z,100188.59
2018-08-07T22:03:00.452Z,100182.64
2018-08-07T22:05:26.421Z,100184.17
2018-08-07T22:07:52.374Z,100174.94
2018-08-07T22:10:18.496Z,100156.07
2018-08-07T22:12:44.477Z,100147.25
2018-08-07T22:15:12.532Z,100149.50
2018-08-07T22:17:38.504Z,100144.98
2018-08-07T22:20:04.501Z,100135.87
2018-08-07T22:22:30.465Z,100133.02
2018-08-07T22:24:56.452Z,100142.02
2018-08-07T22:27:24.568Z,100141.83
2018-08-07T22:29:50.507Z,100136.59
2018-08-07T22:32:16.496Z,100127.35
2018-08-07T22:39:45.551Z,100115.77
2018-08-07T22:44:44.850Z,100107.38
2018-08-07T22:47:10.872Z,100095.57
2018-08-07T22:49:36.839Z,100092.78
2018-08-07T22:52:02.802Z,100084.69
2018-08-07T22:54:28.761Z,100083.48
2018-08-07T22:56:59.494Z,100076.81
2018-08-07T22:59:25.484Z,100070.03
2018-08-07T23:01:51.447Z,100064.91
2018-08-07T23:04:17.589Z,100070.05
2018-08-07T23:06:43.557Z,100075.66
2018-08-07T23:09:36.701Z,100066.66
2018-08-07T23:12:02.826Z,100064.61
2018-08-07T23:14:28.807Z,100053.43
2018-08-07T23:16:54.787Z,100047.48
2018-08-07T23:19:20.912Z,100051.80
2018-08-07T23:21:46.931Z,100056.91
2018-08-07T23:24:12.929Z,100072.19
2018-08-07T23:26:39.025Z,100075.08
2018-08-07T23:29:05.055Z,100070.86
2018-08-07T23:31:31.084Z,100060.81
2018-08-07T23:33:57.063Z,100050.76
2018-08-07T23:36:23.038Z,100063.28
2018-08-07T23:38:49.070Z,100068.41
2018-08-07T23:41:15.039Z,100070.86
2018-08-07T23:43:41.013Z,100068.70
2018-08-07T23:46:06.991Z,100062.66
2018-08-07T23:48:32.992Z,100061.33
2018-08-07T23:50:58.939Z,100071.89
2018-08-07T23:53:24.907Z,100062.95
2018-08-07T23:55:50.963Z,100064.52
2018-08-07T23:58:16.910Z,100064.41
